sensor_id;sensor_type;location;lat;lon;timestamp;P1;durP1;ratioP1;P2;durP2;ratioP2
16246;SDS011;8231;50.866;7.944;2022-10-31T00:00:47;7.75;;;4.28;;
16246;SDS011;8231;50.866;7.944;2022-10-31T00:03:17;7.25;;;5.75;;
16246;SDS011;8231;50.866;7.944;2022-10-31T00:05:46;9.43;;;4.97;;
16246;SDS011;8231;50.866;7.944;2022-10-31T00:08:15;9.63;;;4.88;;
16246;SDS011;8231;50.866;7.944;2022-10-31T00:10:44;8.07;;;5.22;;
16246;SDS011;8231;50.866;7.944;2022-10-31T00:13:13;9.80;;;4.68;;
16246;SDS011;8231;50.866;7.944;2022-10-31T00:15:41;16.50;;;5.57;;
16246;SDS011;8231;50.866;7.944;2022-10-31T00:18:10;10.02;;;4.25;;
16246;SDS011;8231;50.866;7.944;2022-10-31T00:20:39;8.50;;;4.50;;
16246;SDS011;8231;50.866;7.944;2022-10-31T00:23:07;7.70;;;5.15;;
16246;SDS011;8231;50.866;7.944;2022-10-31T00:25:38;14.82;;;4.75;;
16246;SDS011;8231;50.866;7.944;2022-10-31T00:28:07;5.93;;;4.90;;
16246;SDS011;8231;50.866;7.944;2022-10-31T00:30:37;5.13;;;4.60;;
16246;SDS011;8231;50.866;7.944;2022-10-31T00:33:06;8.43;;;4.57;;
16246;SDS011;8231;50.866;7.944;2022-10-31T00:35:34;10.15;;;4.95;;
16246;SDS011;8231;50.866;7.944;2022-10-31T00:38:03;8.95;;;5.30;;
16246;SDS011;8231;50.866;7.944;2022-10-31T00:40:31;11.23;;;6.07;;
16246;SDS011;8231;50.866;7.944;2022-10-31T00:42:59;10.07;;;5.88;;
16246;SDS011;8231;50.866;7.944;2022-10-31T00:45:28;10.30;;;5.75;;
16246;SDS011;8231;50.866;7.944;2022-10-31T00:47:57;10.70;;;6.85;;
16246;SDS011;8231;50.866;7.944;2022-10-31T00:50:25;9.43;;;7.32;;
16246;SDS011;8231;50.866;7.944;2022-10-31T00:52:54;12.55;;;8.02;;
16246;SDS011;8231;50.866;7.944;2022-10-31T00:55:24;12.00;;;7.72;;
16246;SDS011;8231;50.866;7.944;2022-10-31T00:57:52;13.52;;;8.75;;
16246;SDS011;8231;50.866;7.944;2022-10-31T01:00:20;9.95;;;7.72;;
16246;SDS011;8231;50.866;7.944;2022-10-31T01:02:49;13.38;;;7.47;;
16246;SDS011;8231;50.866;7.944;2022-10-31T01:05:17;12.23;;;7.80;;
16246;SDS011;8231;50.866;7.944;2022-10-31T01:07:46;9.60;;;7.28;;
16246;SDS011;8231;50.866;7.944;2022-10-31T01:10:14;9.00;;;8.10;;
16246;SDS011;8231;50.866;7.944;2022-10-31T01:12:46;10.68;;;8.27;;
16246;SDS011;8231;50.866;7.944;2022-10-31T01:15:17;11.48;;;7.28;;
16246;SDS011;8231;50.866;7.944;2022-10-31T01:17:46;11.32;;;8.73;;
16246;SDS011;8231;50.866;7.944;2022-10-31T01:20:15;13.98;;;8.77;;
16246;SDS011;8231;50.866;7.944;2022-10-31T01:22:44;8.43;;;7.55;;
16246;SDS011;8231;50.866;7.944;2022-10-31T01:25:12;15.95;;;9.50;;
16246;SDS011;8231;50.866;7.944;2022-10-31T01:27:40;12.38;;;9.20;;
16246;SDS011;8231;50.866;7.944;2022-10-31T01:30:11;15.00;;;8.07;;
16246;SDS011;8231;50.866;7.944;2022-10-31T01:32:39;10.13;;;7.70;;
16246;SDS011;8231;50.866;7.944;2022-10-31T01:35:08;11.93;;;7.32;;
16246;SDS011;8231;50.866;7.944;2022-10-31T01:37:35;10.75;;;8.82;;
16246;SDS011;8231;50.866;7.944;2022-10-31T01:40:04;13.07;;;8.48;;
16246;SDS011;8231;50.866;7.944;2022-10-31T01:42:33;13.90;;;9.50;;
16246;SDS011;8231;50.866;7.944;2022-10-31T01:45:03;12.65;;;8.10;;
16246;SDS011;8231;50.866;7.944;2022-10-31T01:47:35;16.27;;;8.98;;
16246;SDS011;8231;50.866;7.944;2022-10-31T01:50:10;12.73;;;9.15;;
16246;SDS011;8231;50.866;7.944;2022-10-31T01:52:47;9.43;;;7.18;;
16246;SDS011;8231;50.866;7.944;2022-10-31T01:55:20;11.48;;;6.97;;
16246;SDS011;8231;50.866;7.944;2022-10-31T01:57:56;10.23;;;6.65;;
16246;SDS011;8231;50.866;7.944;2022-10-31T02:00:27;10.07;;;6.40;;
16246;SDS011;8231;50.866;7.944;2022-10-31T02:02:57;10.32;;;8.25;;
16246;SDS011;8231;50.866;7.944;2022-10-31T02:05:27;9.63;;;6.40;;
16246;SDS011;8231;50.866;7.944;2022-10-31T02:07:58;8.25;;;6.15;;
16246;SDS011;8231;50.866;7.944;2022-10-31T02:10:31;8.38;;;6.28;;
16246;SDS011;8231;50.866;7.944;2022-10-31T02:13:01;13.85;;;5.38;;
16246;SDS011;8231;50.866;7.944;2022-10-31T02:15:35;9.38;;;6.88;;
16246;SDS011;8231;50.866;7.944;2022-10-31T02:18:06;11.20;;;5.82;;
16246;SDS011;8231;50.866;7.944;2022-10-31T02:20:37;9.02;;;7.03;;
16246;SDS011;8231;50.866;7.944;2022-10-31T02:26:34;12.32;;;6.53;;
16246;SDS011;8231;50.866;7.944;2022-10-31T02:29:27;9.68;;;6.35;;
16246;SDS011;8231;50.866;7.944;2022-10-31T02:32:40;11.68;;;6.85;;
16246;SDS011;8231;50.866;7.944;2022-10-31T02:35:24;12.60;;;6.03;;
16246;SDS011;8231;50.866;7.944;2022-10-31T02:38:02;10.10;;;6.55;;
16246;SDS011;8231;50.866;7.944;2022-10-31T02:40:35;8.10;;;6.03;;
16246;SDS011;8231;50.866;7.944;2022-10-31T02:43:34;11.40;;;5.20;;
16246;SDS011;8231;50.866;7.944;2022-10-31T02:46:08;8.40;;;5.93;;
16246;SDS011;8231;50.866;7.944;2022-10-31T02:48:42;9.88;;;5.75;;
16246;SDS011;8231;50.866;7.944;2022-10-31T02:51:12;15.43;;;6.22;;
16246;SDS011;8231;50.866;7.944;2022-10-31T02:53:41;11.93;;;6.57;;
16246;SDS011;8231;50.866;7.944;2022-10-31T02:56:11;10.23;;;6.35;;
16246;SDS011;8231;50.866;7.944;2022-10-31T02:58:41;11.63;;;6.30;;
16246;SDS011;8231;50.866;7.944;2022-10-31T03:01:17;9.07;;;6.60;;
16246;SDS011;8231;50.866;7.944;2022-10-31T03:06:56;10.30;;;8.05;;
16246;SDS011;8231;50.866;7.944;2022-10-31T03:09:33;14.48;;;9.13;;
16246;SDS011;8231;50.866;7.944;2022-10-31T03:12:08;13.00;;;8.20;;
16246;SDS011;8231;50.866;7.944;2022-10-31T03:14:43;13.18;;;8.32;;
16246;SDS011;8231;50.866;7.944;2022-10-31T03:17:21;12.32;;;6.47;;
16246;SDS011;8231;50.866;7.944;2022-10-31T03:19:55;9.27;;;7.10;;
16246;SDS011;8231;50.866;7.944;2022-10-31T03:22:28;10.98;;;6.45;;
16246;SDS011;8231;50.866;7.944;2022-10-31T03:24:59;10.13;;;7.40;;
16246;SDS011;8231;50.866;7.944;2022-10-31T03:27:31;11.13;;;5.82;;
16246;SDS011;8231;50.866;7.944;2022-10-31T03:30:03;8.07;;;5.57;;
16246;SDS011;8231;50.866;7.944;2022-10-31T03:32:47;14.25;;;7.70;;
16246;SDS011;8231;50.866;7.944;2022-10-31T03:35:22;16.15;;;9.02;;
16246;SDS011;8231;50.866;7.944;2022-10-31T03:37:53;9.88;;;8.02;;
16246;SDS011;8231;50.866;7.944;2022-10-31T03:40:23;11.65;;;8.30;;
16246;SDS011;8231;50.866;7.944;2022-10-31T03:42:54;11.00;;;8.60;;
16246;SDS011;8231;50.866;7.944;2022-10-31T03:45:28;14.35;;;8.90;;
16246;SDS011;8231;50.866;7.944;2022-10-31T03:47:58;8.98;;;6.18;;
16246;SDS011;8231;50.866;7.944;2022-10-31T03:50:33;10.80;;;6.43;;
16246;SDS011;8231;50.866;7.944;2022-10-31T03:53:06;11.45;;;6.97;;
16246;SDS011;8231;50.866;7.944;2022-10-31T03:55:40;8.82;;;5.32;;
16246;SDS011;8231;50.866;7.944;2022-10-31T03:58:12;7.97;;;6.43;;
16246;SDS011;8231;50.866;7.944;2022-10-31T04:00:52;9.50;;;6.65;;
16246;SDS011;8231;50.866;7.944;2022-10-31T04:03:25;8.70;;;6.22;;
16246;SDS011;8231;50.866;7.944;2022-10-31T04:05:58;9.75;;;6.05;;
16246;SDS011;8231;50.866;7.944;2022-10-31T04:08:30;11.00;;;6.82;;
16246;SDS011;8231;50.866;7.944;2022-10-31T04:11:02;13.27;;;7.18;;
16246;SDS011;8231;50.866;7.944;2022-10-31T04:13:31;12.30;;;7.05;;
16246;SDS011;8231;50.866;7.944;2022-10-31T04:16:10;9.48;;;6.70;;
16246;SDS011;8231;50.866;7.944;2022-10-31T04:18:43;12.27;;;7.93;;
16246;SDS011;8231;50.866;7.944;2022-10-31T04:21:12;10.52;;;6.72;;
16246;SDS011;8231;50.866;7.944;2022-10-31T04:23:41;12.15;;;7.03;;
16246;SDS011;8231;50.866;7.944;2022-10-31T04:26:17;14.70;;;10.45;;
16246;SDS011;8231;50.866;7.944;2022-10-31T04:28:45;13.77;;;9.95;;
16246;SDS011;8231;50.866;7.944;2022-10-31T04:31:13;15.55;;;9.23;;
16246;SDS011;8231;50.866;7.944;2022-10-31T04:33:43;11.60;;;9.02;;
16246;SDS011;8231;50.866;7.944;2022-10-31T04:36:13;15.15;;;8.50;;
16246;SDS011;8231;50.866;7.944;2022-10-31T04:38:41;17.98;;;10.15;;
16246;SDS011;8231;50.866;7.944;2022-10-31T04:41:22;15.18;;;8.88;;
16246;SDS011;8231;50.866;7.944;2022-10-31T04:43:59;10.63;;;6.95;;
16246;SDS011;8231;50.866;7.944;2022-10-31T04:46:29;7.82;;;6.03;;
16246;SDS011;8231;50.866;7.944;2022-10-31T04:48:58;12.25;;;5.78;;
16246;SDS011;8231;50.866;7.944;2022-10-31T04:51:28;9.18;;;6.07;;
16246;SDS011;8231;50.866;7.944;2022-10-31T04:53:56;11.07;;;6.45;;
16246;SDS011;8231;50.866;7.944;2022-10-31T04:56:26;10.52;;;5.55;;
16246;SDS011;8231;50.866;7.944;2022-10-31T04:58:58;10.60;;;5.65;;
16246;SDS011;8231;50.866;7.944;2022-10-31T05:01:29;6.40;;;5.50;;
16246;SDS011;8231;50.866;7.944;2022-10-31T05:03:59;10.57;;;5.32;;
16246;SDS011;8231;50.866;7.944;2022-10-31T05:06:29;11.15;;;5.40;;
16246;SDS011;8231;50.866;7.944;2022-10-31T05:08:58;7.72;;;5.30;;
16246;SDS011;8231;50.866;7.944;2022-10-31T05:11:26;14.35;;;7.95;;
16246;SDS011;8231;50.866;7.944;2022-10-31T05:14:01;12.27;;;8.80;;
16246;SDS011;8231;50.866;7.944;2022-10-31T05:16:58;9.15;;;8.02;;
16246;SDS011;8231;50.866;7.944;2022-10-31T05:19:45;9.15;;;8.10;;
16246;SDS011;8231;50.866;7.944;2022-10-31T05:22:33;13.90;;;8.55;;
16246;SDS011;8231;50.866;7.944;2022-10-31T05:25:01;15.35;;;8.23;;
16246;SDS011;8231;50.866;7.944;2022-10-31T05:27:29;13.75;;;9.00;;
16246;SDS011;8231;50.866;7.944;2022-10-31T05:29:57;12.60;;;9.38;;
16246;SDS011;8231;50.866;7.944;2022-10-31T05:32:36;9.55;;;6.70;;
16246;SDS011;8231;50.866;7.944;2022-10-31T05:35:36;18.30;;;7.00;;
16246;SDS011;8231;50.866;7.944;2022-10-31T05:38:29;11.80;;;9.50;;
16246;SDS011;8231;50.866;7.944;2022-10-31T05:41:04;12.95;;;10.00;;
16246;SDS011;8231;50.866;7.944;2022-10-31T05:43:33;11.00;;;8.35;;
16246;SDS011;8231;50.866;7.944;2022-10-31T05:46:04;19.83;;;9.60;;
16246;SDS011;8231;50.866;7.944;2022-10-31T05:48:54;12.85;;;9.27;;
16246;SDS011;8231;50.866;7.944;2022-10-31T05:51:47;12.88;;;9.77;;
16246;SDS011;8231;50.866;7.944;2022-10-31T05:54:16;12.82;;;8.63;;
16246;SDS011;8231;50.866;7.944;2022-10-31T05:56:45;14.07;;;10.00;;
16246;SDS011;8231;50.866;7.944;2022-10-31T05:59:13;11.77;;;8.77;;
16246;SDS011;8231;50.866;7.944;2022-10-31T06:01:41;12.73;;;8.18;;
16246;SDS011;8231;50.866;7.944;2022-10-31T06:04:25;8.93;;;6.55;;
16246;SDS011;8231;50.866;7.944;2022-10-31T06:06:53;10.55;;;5.80;;
16246;SDS011;8231;50.866;7.944;2022-10-31T06:09:23;10.18;;;6.38;;
16246;SDS011;8231;50.866;7.944;2022-10-31T06:11:51;9.07;;;6.30;;
16246;SDS011;8231;50.866;7.944;2022-10-31T06:14:25;6.10;;;5.32;;
16246;SDS011;8231;50.866;7.944;2022-10-31T06:16:54;12.50;;;6.68;;
16246;SDS011;8231;50.866;7.944;2022-10-31T06:19:49;10.27;;;8.73;;
16246;SDS011;8231;50.866;7.944;2022-10-31T06:22:20;12.65;;;9.48;;
16246;SDS011;8231;50.866;7.944;2022-10-31T06:24:49;11.23;;;6.68;;
16246;SDS011;8231;50.866;7.944;2022-10-31T06:27:26;10.50;;;6.18;;
16246;SDS011;8231;50.866;7.944;2022-10-31T06:29:55;7.20;;;5.57;;
16246;SDS011;8231;50.866;7.944;2022-10-31T06:32:30;16.15;;;6.82;;
16246;SDS011;8231;50.866;7.944;2022-10-31T06:34:59;11.93;;;7.60;;
16246;SDS011;8231;50.866;7.944;2022-10-31T06:37:27;9.95;;;7.00;;
16246;SDS011;8231;50.866;7.944;2022-10-31T06:40:03;15.60;;;6.80;;
16246;SDS011;8231;50.866;7.944;2022-10-31T06:42:55;13.40;;;5.95;;
16246;SDS011;8231;50.866;7.944;2022-10-31T06:45:23;10.07;;;6.70;;
16246;SDS011;8231;50.866;7.944;2022-10-31T06:48:10;10.50;;;6.55;;
16246;SDS011;8231;50.866;7.944;2022-10-31T06:51:02;11.20;;;6.55;;
16246;SDS011;8231;50.866;7.944;2022-10-31T06:53:31;9.00;;;6.18;;
16246;SDS011;8231;50.866;7.944;2022-10-31T06:56:01;8.85;;;6.80;;
16246;SDS011;8231;50.866;7.944;2022-10-31T06:58:33;12.50;;;6.53;;
16246;SDS011;8231;50.866;7.944;2022-10-31T07:01:04;10.15;;;6.57;;
16246;SDS011;8231;50.866;7.944;2022-10-31T07:03:32;8.98;;;5.90;;
16246;SDS011;8231;50.866;7.944;2022-10-31T07:06:01;9.32;;;6.30;;
16246;SDS011;8231;50.866;7.944;2022-10-31T07:08:29;11.30;;;7.00;;
16246;SDS011;8231;50.866;7.944;2022-10-31T07:10:57;12.23;;;6.68;;
16246;SDS011;8231;50.866;7.944;2022-10-31T07:13:29;9.95;;;6.68;;
16246;SDS011;8231;50.866;7.944;2022-10-31T07:16:04;10.38;;;7.32;;
16246;SDS011;8231;50.866;7.944;2022-10-31T07:18:35;9.48;;;7.22;;
16246;SDS011;8231;50.866;7.944;2022-10-31T07:21:29;12.98;;;7.30;;
16246;SDS011;8231;50.866;7.944;2022-10-31T07:23:57;8.57;;;6.25;;
16246;SDS011;8231;50.866;7.944;2022-10-31T07:26:43;13.32;;;6.60;;
16246;SDS011;8231;50.866;7.944;2022-10-31T07:29:15;11.60;;;6.70;;
16246;SDS011;8231;50.866;7.944;2022-10-31T07:31:45;10.90;;;7.38;;
16246;SDS011;8231;50.866;7.944;2022-10-31T07:34:19;8.02;;;6.95;;
16246;SDS011;8231;50.866;7.944;2022-10-31T07:37:13;10.73;;;7.13;;
16246;SDS011;8231;50.866;7.944;2022-10-31T07:39:41;12.45;;;7.15;;
16246;SDS011;8231;50.866;7.944;2022-10-31T07:42:09;9.73;;;7.05;;
16246;SDS011;8231;50.866;7.944;2022-10-31T07:44:43;15.50;;;7.65;;
16246;SDS011;8231;50.866;7.944;2022-10-31T07:47:37;9.57;;;6.70;;
16246;SDS011;8231;50.866;7.944;2022-10-31T07:50:27;11.02;;;7.53;;
16246;SDS011;8231;50.866;7.944;2022-10-31T07:53:14;12.40;;;8.07;;
16246;SDS011;8231;50.866;7.944;2022-10-31T07:55:52;17.73;;;8.57;;
16246;SDS011;8231;50.866;7.944;2022-10-31T07:58:23;13.38;;;9.70;;
16246;SDS011;8231;50.866;7.944;2022-10-31T08:00:53;12.88;;;9.68;;
16246;SDS011;8231;50.866;7.944;2022-10-31T08:03:31;15.82;;;9.38;;
16246;SDS011;8231;50.866;7.944;2022-10-31T08:06:21;17.20;;;8.55;;
16246;SDS011;8231;50.866;7.944;2022-10-31T08:09:09;15.43;;;9.43;;
16246;SDS011;8231;50.866;7.944;2022-10-31T08:11:38;16.23;;;9.63;;
16246;SDS011;8231;50.866;7.944;2022-10-31T08:14:06;23.42;;;9.15;;
16246;SDS011;8231;50.866;7.944;2022-10-31T08:16:36;17.95;;;9.07;;
16246;SDS011;8231;50.866;7.944;2022-10-31T08:19:06;16.73;;;9.15;;
16246;SDS011;8231;50.866;7.944;2022-10-31T08:21:37;17.85;;;10.93;;
16246;SDS011;8231;50.866;7.944;2022-10-31T08:24:07;16.33;;;9.25;;
16246;SDS011;8231;50.866;7.944;2022-10-31T08:26:35;17.73;;;9.68;;
16246;SDS011;8231;50.866;7.944;2022-10-31T08:29:06;16.90;;;11.43;;
16246;SDS011;8231;50.866;7.944;2022-10-31T08:31:37;21.92;;;10.65;;
16246;SDS011;8231;50.866;7.944;2022-10-31T08:34:27;14.90;;;9.27;;
16246;SDS011;8231;50.866;7.944;2022-10-31T08:37:13;23.75;;;10.23;;
16246;SDS011;8231;50.866;7.944;2022-10-31T08:39:48;19.80;;;11.13;;
16246;SDS011;8231;50.866;7.944;2022-10-31T08:42:16;20.02;;;10.77;;
16246;SDS011;8231;50.866;7.944;2022-10-31T08:44:45;20.40;;;10.20;;
16246;SDS011;8231;50.866;7.944;2022-10-31T08:47:14;16.20;;;10.52;;
16246;SDS011;8231;50.866;7.944;2022-10-31T08:49:42;15.02;;;10.10;;
16246;SDS011;8231;50.866;7.944;2022-10-31T08:52:11;17.63;;;8.68;;
16246;SDS011;8231;50.866;7.944;2022-10-31T08:54:42;14.65;;;8.25;;
16246;SDS011;8231;50.866;7.944;2022-10-31T08:57:30;13.10;;;8.18;;
16246;SDS011;8231;50.866;7.944;2022-10-31T08:59:58;17.02;;;9.40;;
16246;SDS011;8231;50.866;7.944;2022-10-31T09:03:05;13.13;;;8.18;;
16246;SDS011;8231;50.866;7.944;2022-10-31T09:05:34;14.27;;;7.63;;
16246;SDS011;8231;50.866;7.944;2022-10-31T09:08:03;20.42;;;8.05;;
16246;SDS011;8231;50.866;7.944;2022-10-31T09:10:37;10.52;;;6.68;;
16246;SDS011;8231;50.866;7.944;2022-10-31T09:13:06;9.45;;;6.40;;
16246;SDS011;8231;50.866;7.944;2022-10-31T09:15:37;16.20;;;7.07;;
16246;SDS011;8231;50.866;7.944;2022-10-31T09:18:17;9.32;;;6.70;;
16246;SDS011;8231;50.866;7.944;2022-10-31T09:20:59;16.65;;;7.97;;
16246;SDS011;8231;50.866;7.944;2022-10-31T09:23:29;10.82;;;7.50;;
16246;SDS011;8231;50.866;7.944;2022-10-31T09:26:01;15.20;;;8.05;;
16246;SDS011;8231;50.866;7.944;2022-10-31T09:28:45;12.05;;;8.50;;
16246;SDS011;8231;50.866;7.944;2022-10-31T09:31:16;10.43;;;7.80;;
16246;SDS011;8231;50.866;7.944;2022-10-31T09:33:58;17.13;;;8.60;;
16246;SDS011;8231;50.866;7.944;2022-10-31T09:36:35;18.00;;;9.07;;
16246;SDS011;8231;50.866;7.944;2022-10-31T09:39:07;20.15;;;8.25;;
16246;SDS011;8231;50.866;7.944;2022-10-31T09:41:42;15.45;;;9.07;;
16246;SDS011;8231;50.866;7.944;2022-10-31T09:44:30;15.15;;;8.30;;
16246;SDS011;8231;50.866;7.944;2022-10-31T09:47:13;13.95;;;7.47;;
16246;SDS011;8231;50.866;7.944;2022-10-31T09:50:13;15.13;;;8.23;;
16246;SDS011;8231;50.866;7.944;2022-10-31T09:52:48;13.23;;;7.95;;
16246;SDS011;8231;50.866;7.944;2022-10-31T09:55:26;15.35;;;8.93;;
16246;SDS011;8231;50.866;7.944;2022-10-31T09:57:58;15.98;;;8.20;;
16246;SDS011;8231;50.866;7.944;2022-10-31T10:00:28;11.63;;;7.43;;
16246;SDS011;8231;50.866;7.944;2022-10-31T10:03:00;13.60;;;7.95;;
16246;SDS011;8231;50.866;7.944;2022-10-31T10:05:38;15.93;;;8.82;;
16246;SDS011;8231;50.866;7.944;2022-10-31T10:08:33;16.30;;;8.07;;
16246;SDS011;8231;50.866;7.944;2022-10-31T10:11:34;17.42;;;8.48;;
16246;SDS011;8231;50.866;7.944;2022-10-31T10:14:18;16.65;;;9.23;;
16246;SDS011;8231;50.866;7.944;2022-10-31T10:16:57;11.55;;;7.70;;
16246;SDS011;8231;50.866;7.944;2022-10-31T10:19:43;12.00;;;7.70;;
16246;SDS011;8231;50.866;7.944;2022-10-31T10:22:22;12.70;;;7.72;;
16246;SDS011;8231;50.866;7.944;2022-10-31T10:25:01;14.27;;;9.18;;
16246;SDS011;8231;50.866;7.944;2022-10-31T10:27:42;11.38;;;9.23;;
16246;SDS011;8231;50.866;7.944;2022-10-31T10:30:17;12.57;;;9.13;;
16246;SDS011;8231;50.866;7.944;2022-10-31T10:32:47;18.02;;;10.57;;
16246;SDS011;8231;50.866;7.944;2022-10-31T10:35:23;17.92;;;10.63;;
16246;SDS011;8231;50.866;7.944;2022-10-31T10:37:58;19.75;;;9.73;;
16246;SDS011;8231;50.866;7.944;2022-10-31T10:40:30;18.52;;;8.80;;
16246;SDS011;8231;50.866;7.944;2022-10-31T10:43:01;13.73;;;7.82;;
16246;SDS011;8231;50.866;7.944;2022-10-31T10:46:00;16.35;;;8.90;;
16246;SDS011;8231;50.866;7.944;2022-10-31T10:49:05;12.80;;;8.20;;
16246;SDS011;8231;50.866;7.944;2022-10-31T10:51:41;16.95;;;8.10;;
16246;SDS011;8231;50.866;7.944;2022-10-31T10:54:36;14.50;;;8.50;;
16246;SDS011;8231;50.866;7.944;2022-10-31T10:57:12;17.30;;;8.32;;
16246;SDS011;8231;50.866;7.944;2022-10-31T10:59:48;14.77;;;7.82;;
16246;SDS011;8231;50.866;7.944;2022-10-31T11:02:19;14.13;;;8.30;;
16246;SDS011;8231;50.866;7.944;2022-10-31T11:04:50;11.60;;;7.32;;
16246;SDS011;8231;50.866;7.944;2022-10-31T11:07:20;18.83;;;8.57;;
16246;SDS011;8231;50.866;7.944;2022-10-31T11:09:50;12.57;;;8.48;;
16246;SDS011;8231;50.866;7.944;2022-10-31T11:12:19;14.63;;;7.88;;
16246;SDS011;8231;50.866;7.944;2022-10-31T11:14:50;14.93;;;8.02;;
16246;SDS011;8231;50.866;7.944;2022-10-31T11:17:26;13.60;;;8.13;;
16246;SDS011;8231;50.866;7.944;2022-10-31T11:20:03;15.40;;;8.40;;
16246;SDS011;8231;50.866;7.944;2022-10-31T11:22:55;12.50;;;7.13;;
16246;SDS011;8231;50.866;7.944;2022-10-31T11:25:30;8.38;;;6.55;;
16246;SDS011;8231;50.866;7.944;2022-10-31T11:27:59;11.43;;;7.47;;
16246;SDS011;8231;50.866;7.944;2022-10-31T11:30:28;16.60;;;8.05;;
16246;SDS011;8231;50.866;7.944;2022-10-31T11:32:58;10.75;;;6.70;;
16246;SDS011;8231;50.866;7.944;2022-10-31T11:35:26;15.82;;;10.48;;
16246;SDS011;8231;50.866;7.944;2022-10-31T11:37:56;14.70;;;6.38;;
16246;SDS011;8231;50.866;7.944;2022-10-31T11:40:27;9.85;;;6.32;;
16246;SDS011;8231;50.866;7.944;2022-10-31T11:42:57;12.88;;;6.00;;
16246;SDS011;8231;50.866;7.944;2022-10-31T11:45:28;9.30;;;5.28;;
16246;SDS011;8231;50.866;7.944;2022-10-31T11:47:59;8.55;;;4.88;;
16246;SDS011;8231;50.866;7.944;2022-10-31T11:50:31;13.70;;;5.43;;
16246;SDS011;8231;50.866;7.944;2022-10-31T11:53:03;7.22;;;5.13;;
16246;SDS011;8231;50.866;7.944;2022-10-31T11:55:32;11.27;;;5.10;;
16246;SDS011;8231;50.866;7.944;2022-10-31T11:58:04;11.10;;;5.63;;
16246;SDS011;8231;50.866;7.944;2022-10-31T12:00:48;12.80;;;5.63;;
16246;SDS011;8231;50.866;7.944;2022-10-31T12:03:23;10.38;;;5.30;;
16246;SDS011;8231;50.866;7.944;2022-10-31T12:06:04;7.30;;;5.10;;
16246;SDS011;8231;50.866;7.944;2022-10-31T12:08:35;13.77;;;5.93;;
16246;SDS011;8231;50.866;7.944;2022-10-31T12:11:07;14.05;;;8.48;;
16246;SDS011;8231;50.866;7.944;2022-10-31T12:13:46;10.50;;;5.85;;
16246;SDS011;8231;50.866;7.944;2022-10-31T12:16:36;14.65;;;6.63;;
16246;SDS011;8231;50.866;7.944;2022-10-31T12:19:12;11.23;;;5.22;;
16246;SDS011;8231;50.866;7.944;2022-10-31T12:21:57;9.52;;;5.25;;
16246;SDS011;8231;50.866;7.944;2022-10-31T12:24:35;13.07;;;5.60;;
16246;SDS011;8231;50.866;7.944;2022-10-31T12:27:21;9.10;;;5.00;;
16246;SDS011;8231;50.866;7.944;2022-10-31T12:32:53;10.30;;;5.50;;
16246;SDS011;8231;50.866;7.944;2022-10-31T12:35:47;9.05;;;4.78;;
16246;SDS011;8231;50.866;7.944;2022-10-31T12:38:30;10.75;;;5.20;;
16246;SDS011;8231;50.866;7.944;2022-10-31T12:41:11;11.85;;;5.00;;
16246;SDS011;8231;50.866;7.944;2022-10-31T12:43:53;10.90;;;4.85;;
16246;SDS011;8231;50.866;7.944;2022-10-31T12:46:36;7.88;;;4.60;;
16246;SDS011;8231;50.866;7.944;2022-10-31T12:49:31;9.88;;;4.53;;
16246;SDS011;8231;50.866;7.944;2022-10-31T12:52:14;9.55;;;4.43;;
16246;SDS011;8231;50.866;7.944;2022-10-31T12:54:54;10.82;;;4.78;;
16246;SDS011;8231;50.866;7.944;2022-10-31T12:57:32;12.65;;;4.88;;
16246;SDS011;8231;50.866;7.944;2022-10-31T13:00:03;7.40;;;4.60;;
16246;SDS011;8231;50.866;7.944;2022-10-31T13:02:37;8.50;;;4.70;;
16246;SDS011;8231;50.866;7.944;2022-10-31T13:05:12;10.50;;;5.05;;
16246;SDS011;8231;50.866;7.944;2022-10-31T13:07:44;12.45;;;4.90;;
16246;SDS011;8231;50.866;7.944;2022-10-31T13:10:16;8.88;;;4.55;;
16246;SDS011;8231;50.866;7.944;2022-10-31T13:12:49;10.35;;;4.38;;
16246;SDS011;8231;50.866;7.944;2022-10-31T13:15:21;9.00;;;4.43;;
16246;SDS011;8231;50.866;7.944;2022-10-31T13:17:53;9.93;;;4.72;;
16246;SDS011;8231;50.866;7.944;2022-10-31T13:20:24;12.43;;;5.43;;
16246;SDS011;8231;50.866;7.944;2022-10-31T13:22:57;9.73;;;4.13;;
16246;SDS011;8231;50.866;7.944;2022-10-31T13:25:52;11.65;;;5.10;;
16246;SDS011;8231;50.866;7.944;2022-10-31T13:28:24;8.48;;;4.47;;
16246;SDS011;8231;50.866;7.944;2022-10-31T13:30:57;5.55;;;4.50;;
16246;SDS011;8231;50.866;7.944;2022-10-31T13:33:27;16.85;;;10.18;;
16246;SDS011;8231;50.866;7.944;2022-10-31T13:36:04;10.02;;;4.57;;
16246;SDS011;8231;50.866;7.944;2022-10-31T13:38:40;9.70;;;4.30;;
16246;SDS011;8231;50.866;7.944;2022-10-31T13:41:17;11.20;;;5.03;;
16246;SDS011;8231;50.866;7.944;2022-10-31T13:43:59;5.97;;;3.75;;
16246;SDS011;8231;50.866;7.944;2022-10-31T13:46:34;10.68;;;4.22;;
16246;SDS011;8231;50.866;7.944;2022-10-31T13:49:19;6.78;;;4.50;;
16246;SDS011;8231;50.866;7.944;2022-10-31T13:51:52;6.70;;;4.50;;
16246;SDS011;8231;50.866;7.944;2022-10-31T13:54:21;9.40;;;4.63;;
16246;SDS011;8231;50.866;7.944;2022-10-31T13:56:50;10.77;;;4.18;;
16246;SDS011;8231;50.866;7.944;2022-10-31T13:59:20;7.40;;;4.80;;
16246;SDS011;8231;50.866;7.944;2022-10-31T14:01:53;7.03;;;4.05;;
16246;SDS011;8231;50.866;7.944;2022-10-31T14:04:25;7.95;;;4.75;;
16246;SDS011;8231;50.866;7.944;2022-10-31T14:06:57;9.27;;;4.47;;
16246;SDS011;8231;50.866;7.944;2022-10-31T14:09:33;12.30;;;4.90;;
16246;SDS011;8231;50.866;7.944;2022-10-31T14:12:04;8.00;;;4.38;;
16246;SDS011;8231;50.866;7.944;2022-10-31T14:14:39;6.72;;;4.35;;
16246;SDS011;8231;50.866;7.944;2022-10-31T14:17:18;9.00;;;5.22;;
16246;SDS011;8231;50.866;7.944;2022-10-31T14:20:19;9.57;;;4.30;;
16246;SDS011;8231;50.866;7.944;2022-10-31T14:22:51;12.73;;;4.18;;
16246;SDS011;8231;50.866;7.944;2022-10-31T14:25:27;8.32;;;4.07;;
16246;SDS011;8231;50.866;7.944;2022-10-31T14:27:57;8.40;;;4.55;;
16246;SDS011;8231;50.866;7.944;2022-10-31T14:30:28;10.20;;;4.50;;
16246;SDS011;8231;50.866;7.944;2022-10-31T14:32:57;8.25;;;4.95;;
16246;SDS011;8231;50.866;7.944;2022-10-31T14:35:33;7.88;;;4.55;;
16246;SDS011;8231;50.866;7.944;2022-10-31T14:38:31;11.48;;;4.75;;
16246;SDS011;8231;50.866;7.944;2022-10-31T14:41:23;12.45;;;5.22;;
16246;SDS011;8231;50.866;7.944;2022-10-31T14:44:10;10.65;;;4.75;;
16246;SDS011;8231;50.866;7.944;2022-10-31T14:47:01;9.02;;;5.10;;
16246;SDS011;8231;50.866;7.944;2022-10-31T14:49:44;11.43;;;4.47;;
16246;SDS011;8231;50.866;7.944;2022-10-31T14:52:32;8.93;;;4.65;;
16246;SDS011;8231;50.866;7.944;2022-10-31T14:55:03;13.65;;;4.65;;
16246;SDS011;8231;50.866;7.944;2022-10-31T14:57:35;7.57;;;3.95;;
16246;SDS011;8231;50.866;7.944;2022-10-31T15:00:06;8.48;;;4.60;;
16246;SDS011;8231;50.866;7.944;2022-10-31T15:02:37;7.93;;;3.83;;
16246;SDS011;8231;50.866;7.944;2022-10-31T15:05:11;9.93;;;4.50;;
16246;SDS011;8231;50.866;7.944;2022-10-31T15:07:50;8.32;;;4.85;;
16246;SDS011;8231;50.866;7.944;2022-10-31T15:10:19;8.27;;;3.97;;
16246;SDS011;8231;50.866;7.944;2022-10-31T15:12:49;6.20;;;3.78;;
16246;SDS011;8231;50.866;7.944;2022-10-31T15:15:19;12.30;;;4.63;;
16246;SDS011;8231;50.866;7.944;2022-10-31T15:17:49;10.50;;;4.47;;
16246;SDS011;8231;50.866;7.944;2022-10-31T15:20:20;7.70;;;4.32;;
16246;SDS011;8231;50.866;7.944;2022-10-31T15:22:51;9.32;;;4.43;;
16246;SDS011;8231;50.866;7.944;2022-10-31T15:25:22;12.13;;;5.05;;
16246;SDS011;8231;50.866;7.944;2022-10-31T15:27:52;9.40;;;5.38;;
16246;SDS011;8231;50.866;7.944;2022-10-31T15:30:22;16.23;;;5.07;;
16246;SDS011;8231;50.866;7.944;2022-10-31T15:32:51;12.43;;;5.45;;
16246;SDS011;8231;50.866;7.944;2022-10-31T15:35:25;10.88;;;5.00;;
16246;SDS011;8231;50.866;7.944;2022-10-31T15:37:56;9.30;;;4.45;;
16246;SDS011;8231;50.866;7.944;2022-10-31T15:40:26;10.25;;;4.90;;
16246;SDS011;8231;50.866;7.944;2022-10-31T15:42:55;6.95;;;5.40;;
16246;SDS011;8231;50.866;7.944;2022-10-31T15:45:26;8.77;;;5.38;;